sensor_id;sensor_type;location;lat;lon;timestamp;pressure;altitude;pressure_sealevel;temperature;humidity
80124;BME280;69433;48.642;9.142;2024-02-14T00:00:10;97396.69;;;22.13;34.62
80124;BME280;69433;48.642;9.142;2024-02-14T00:02:43;97400.91;;;22.10;34.75
80124;BME280;69433;48.642;9.142;2024-02-14T00:05:09;97398.63;;;22.09;34.76
80124;BME280;69433;48.642;9.142;2024-02-14T00:07:36;97404.34;;;22.11;34.74
80124;BME280;69433;48.642;9.142;2024-02-14T00:10:02;97403.59;;;22.10;34.68
80124;BME280;69433;48.642;9.142;2024-02-14T00:12:27;97410.50;;;22.08;34.78
80124;BME280;69433;48.642;9.142;2024-02-14T00:14:53;97408.56;;;22.08;34.66
80124;BME280;69433;48.642;9.142;2024-02-14T00:17:18;97412.75;;;22.13;34.69
80124;BME280;69433;48.642;9.142;2024-02-14T00:19:46;97406.28;;;22.07;34.78
80124;BME280;69433;48.642;9.142;2024-02-14T00:22:11;97410.09;;;22.06;34.64
80124;BME280;69433;48.642;9.142;2024-02-14T00:24:42;97405.53;;;22.06;34.79
80124;BME280;69433;48.642;9.142;2024-02-14T00:27:09;97402.84;;;22.06;34.60
80124;BME280;69433;48.642;9.142;2024-02-14T00:29:35;97402.84;;;22.06;34.77
80124;BME280;69433;48.642;9.142;2024-02-14T00:32:00;97406.28;;;22.07;34.57
80124;BME280;69433;48.642;9.142;2024-02-14T00:34:34;97400.53;;;22.08;34.50
80124;BME280;69433;48.642;9.142;2024-02-14T00:37:03;97397.47;;;22.06;34.57
80124;BME280;69433;48.642;9.142;2024-02-14T00:39:29;97398.63;;;22.09;34.35
80124;BME280;69433;48.642;9.142;2024-02-14T00:41:55;97397.47;;;22.06;34.55
80124;BME280;69433;48.642;9.142;2024-02-14T00:44:23;97391.75;;;22.04;34.39
80124;BME280;69433;48.642;9.142;2024-02-14T00:46:56;97394.81;;;22.06;34.35
80124;BME280;69433;48.642;9.142;2024-02-14T00:49:22;97388.34;;;22.00;34.58
80124;BME280;69433;48.642;9.142;2024-02-14T00:51:47;97399.78;;;22.04;34.39
80124;BME280;69433;48.642;9.142;2024-02-14T00:54:20;97399.41;;;22.02;34.48
80124;BME280;69433;48.642;9.142;2024-02-14T00:56:51;97402.84;;;22.03;34.44
80124;BME280;69433;48.642;9.142;2024-02-14T00:59:25;97403.22;;;22.01;34.29
80124;BME280;69433;48.642;9.142;2024-02-14T01:01:50;97410.53;;;22.01;34.45
80124;BME280;69433;48.642;9.142;2024-02-14T01:04:16;97408.22;;;21.99;34.14
80124;BME280;69433;48.642;9.142;2024-02-14T01:06:41;97406.66;;;22.02;34.31
80124;BME280;69433;48.642;9.142;2024-02-14T01:09:07;97401.31;;;22.02;34.39
80124;BME280;69433;48.642;9.142;2024-02-14T01:11:33;97413.94;;;22.01;34.40
80124;BME280;69433;48.642;9.142;2024-02-14T01:13:59;97403.22;;;22.01;34.50
80124;BME280;69433;48.642;9.142;2024-02-14T01:16:32;97402.09;;;22.02;34.30
80124;BME280;69433;48.642;9.142;2024-02-14T01:18:58;97410.91;;;21.99;34.37
80124;BME280;69433;48.642;9.142;2024-02-14T01:21:30;97406.69;;;21.98;34.43
80124;BME280;69433;48.642;9.142;2024-02-14T01:23:55;97413.59;;;21.99;34.41
80124;BME280;69433;48.642;9.142;2024-02-14T01:26:20;97416.25;;;21.99;34.40
80124;BME280;69433;48.642;9.142;2024-02-14T01:28:49;97412.44;;;22.00;34.33
80124;BME280;69433;48.642;9.142;2024-02-14T01:31:22;97410.91;;;21.99;34.30
80124;BME280;69433;48.642;9.142;2024-02-14T01:33:47;97419.69;;;21.96;34.22
80124;BME280;69433;48.642;9.142;2024-02-14T01:36:13;97406.69;;;21.98;34.27
80124;BME280;69433;48.642;9.142;2024-02-14T01:38:55;97402.84;;;21.96;34.30
80124;BME280;69433;48.642;9.142;2024-02-14T01:41:26;97391.38;;;21.92;34.42
80124;BME280;69433;48.642;9.142;2024-02-14T01:43:51;97402.50;;;21.90;34.51
80124;BME280;69433;48.642;9.142;2024-02-14T01:46:29;97387.97;;;21.91;34.51
80124;BME280;69433;48.642;9.142;2024-02-14T01:49:01;97388.31;;;21.93;34.31
80124;BME280;69433;48.642;9.142;2024-02-14T01:51:39;97395.22;;;21.91;34.28
80124;BME280;69433;48.642;9.142;2024-02-14T01:54:07;97395.22;;;21.91;34.47
80124;BME280;69433;48.642;9.142;2024-02-14T01:56:39;97396.00;;;21.91;34.24
80124;BME280;69433;48.642;9.142;2024-02-14T01:59:17;97395.59;;;21.93;34.33
80124;BME280;69433;48.642;9.142;2024-02-14T02:01:44;97391.38;;;21.92;34.16
80124;BME280;69433;48.642;9.142;2024-02-14T02:04:15;97392.16;;;21.92;34.27
80124;BME280;69433;48.642;9.142;2024-02-14T02:06:40;97389.47;;;21.92;34.23
80124;BME280;69433;48.642;9.142;2024-02-14T02:09:16;97389.09;;;21.94;34.29
80124;BME280;69433;48.642;9.142;2024-02-14T02:11:57;97392.53;;;21.94;34.44
80124;BME280;69433;48.642;9.142;2024-02-14T02:14:28;97390.63;;;21.95;34.16
80124;BME280;69433;48.642;9.142;2024-02-14T02:16:54;97390.22;;;21.96;34.18
80124;BME280;69433;48.642;9.142;2024-02-14T02:19:20;97387.56;;;21.96;34.24
80124;BME280;69433;48.642;9.142;2024-02-14T02:21:51;97380.66;;;21.95;34.18
80124;BME280;69433;48.642;9.142;2024-02-14T02:24:24;97386.03;;;21.95;34.33
80124;BME280;69433;48.642;9.142;2024-02-14T02:26:49;97375.31;;;21.95;34.22
80124;BME280;69433;48.642;9.142;2024-02-14T02:29:18;97367.28;;;21.95;34.21
80124;BME280;69433;48.642;9.142;2024-02-14T02:31:44;97370.72;;;21.92;34.29
80124;BME280;69433;48.642;9.142;2024-02-14T02:34:17;97373.03;;;21.94;34.20
80124;BME280;69433;48.642;9.142;2024-02-14T02:36:51;97370.72;;;21.92;34.17
80124;BME280;69433;48.642;9.142;2024-02-14T02:39:17;97364.63;;;21.92;34.22
80124;BME280;69433;48.642;9.142;2024-02-14T02:41:43;97365.38;;;21.92;34.23
80124;BME280;69433;48.642;9.142;2024-02-14T02:44:12;97356.22;;;21.90;34.21
80124;BME280;69433;48.642;9.142;2024-02-14T02:46:45;97348.59;;;21.88;34.28
80124;BME280;69433;48.642;9.142;2024-02-14T02:49:10;97348.59;;;21.88;34.31
80124;BME280;69433;48.642;9.142;2024-02-14T02:51:39;97344.00;;;21.89;34.40
80124;BME280;69433;48.642;9.142;2024-02-14T02:54:06;97347.06;;;21.87;34.27
80124;BME280;69433;48.642;9.142;2024-02-14T02:56:40;97345.53;;;21.86;34.38
80124;BME280;69433;48.642;9.142;2024-02-14T02:59:15;97340.19;;;21.86;34.38
80124;BME280;69433;48.642;9.142;2024-02-14T03:01:51;97327.56;;;21.87;34.33
80124;BME280;69433;48.642;9.142;2024-02-14T03:04:18;97336.72;;;21.85;34.29
80124;BME280;69433;48.642;9.142;2024-02-14T03:06:55;97326.03;;;21.85;34.18
80124;BME280;69433;48.642;9.142;2024-02-14T03:09:22;97319.91;;;21.85;34.27
80124;BME280;69433;48.642;9.142;2024-02-14T03:11:48;97331.00;;;21.83;34.27
80124;BME280;69433;48.642;9.142;2024-02-14T03:14:14;97324.13;;;21.82;34.28
80124;BME280;69433;48.642;9.142;2024-02-14T03:16:47;97328.72;;;21.82;34.34
80124;BME280;69433;48.642;9.142;2024-02-14T03:19:19;97316.50;;;21.81;34.41
80124;BME280;69433;48.642;9.142;2024-02-14T03:21:47;97324.16;;;21.79;34.20
80124;BME280;69433;48.642;9.142;2024-02-14T03:24:12;97327.22;;;21.77;34.52
80124;BME280;69433;48.642;9.142;2024-02-14T03:26:39;97331.03;;;21.80;34.49
80124;BME280;69433;48.642;9.142;2024-02-14T03:29:04;97334.88;;;21.79;34.37
80124;BME280;69433;48.642;9.142;2024-02-14T03:31:32;97347.88;;;21.80;34.39
80124;BME280;69433;48.642;9.142;2024-02-14T03:33:58;97360.09;;;21.78;34.38
80124;BME280;69433;48.642;9.142;2024-02-14T03:36:31;97364.69;;;21.81;34.38
80124;BME280;69433;48.642;9.142;2024-02-14T03:39:05;97366.97;;;21.79;34.27
80124;BME280;69433;48.642;9.142;2024-02-14T03:41:38;97374.63;;;21.80;34.20
80124;BME280;69433;48.642;9.142;2024-02-14T03:44:04;97373.09;;;21.79;34.43
80124;BME280;69433;48.642;9.142;2024-02-14T03:46:36;97376.53;;;21.80;34.41
80124;BME280;69433;48.642;9.142;2024-02-14T03:49:04;97380.75;;;21.81;34.33
80124;BME280;69433;48.642;9.142;2024-02-14T03:51:29;97366.25;;;21.64;34.41
80124;BME280;69433;48.642;9.142;2024-02-14T03:53:57;97363.22;;;21.59;34.53
80124;BME280;69433;48.642;9.142;2024-02-14T03:56:22;97368.19;;;21.53;34.45
80124;BME280;69433;48.642;9.142;2024-02-14T03:59:05;97375.09;;;21.47;34.27
80124;BME280;69433;48.642;9.142;2024-02-14T04:01:31;97384.28;;;21.42;34.24
80124;BME280;69433;48.642;9.142;2024-02-14T04:03:57;97377.03;;;21.39;34.20
80124;BME280;69433;48.642;9.142;2024-02-14T04:06:24;97377.03;;;21.39;34.32
80124;BME280;69433;48.642;9.142;2024-02-14T04:08:52;97371.69;;;21.36;33.93
80124;BME280;69433;48.642;9.142;2024-02-14T04:11:18;97383.88;;;21.47;34.19
80124;BME280;69433;48.642;9.142;2024-02-14T04:13:44;97385.00;;;21.61;34.15
80124;BME280;69433;48.642;9.142;2024-02-14T04:16:18;97375.78;;;21.76;34.02
80124;BME280;69433;48.642;9.142;2024-02-14T04:18:43;97380.31;;;21.86;33.91
80124;BME280;69433;48.642;9.142;2024-02-14T04:21:15;97383.72;;;21.97;33.89
80124;BME280;69433;48.642;9.142;2024-02-14T04:23:43;97376.44;;;22.08;33.78
80124;BME280;69433;48.642;9.142;2024-02-14T04:26:08;97370.28;;;22.18;33.77
80124;BME280;69433;48.642;9.142;2024-02-14T04:28:34;97372.13;;;22.29;33.70
80124;BME280;69433;48.642;9.142;2024-02-14T04:31:07;97377.44;;;22.36;33.54
80124;BME280;69433;48.642;9.142;2024-02-14T04:33:35;97368.19;;;22.44;33.56
80124;BME280;69433;48.642;9.142;2024-02-14T04:36:02;97367.38;;;22.50;33.48
80124;BME280;69433;48.642;9.142;2024-02-14T04:38:39;97380.34;;;22.59;33.42
80124;BME280;69433;48.642;9.142;2024-02-14T04:41:06;97377.25;;;22.64;33.33
80124;BME280;69433;48.642;9.142;2024-02-14T04:43:40;97387.91;;;22.71;33.19
80124;BME280;69433;48.642;9.142;2024-02-14T04:46:07;97389.06;;;22.77;33.20
80124;BME280;69433;48.642;9.142;2024-02-14T04:48:42;97387.88;;;22.82;33.21
80124;BME280;69433;48.642;9.142;2024-02-14T04:51:07;97386.31;;;22.84;33.25
80124;BME280;69433;48.642;9.142;2024-02-14T04:53:43;97389.34;;;22.90;33.21
80124;BME280;69433;48.642;9.142;2024-02-14T04:56:24;97391.59;;;22.95;33.09
80124;BME280;69433;48.642;9.142;2024-02-14T04:58:51;97401.13;;;23.00;33.18
80124;BME280;69433;48.642;9.142;2024-02-14T05:01:17;97400.34;;;23.03;32.89
80124;BME280;69433;48.642;9.142;2024-02-14T05:03:49;97406.47;;;23.07;32.79
80124;BME280;69433;48.642;9.142;2024-02-14T05:06:15;97404.13;;;23.09;33.08
80124;BME280;69433;48.642;9.142;2024-02-14T05:08:49;97406.78;;;23.12;32.78
80124;BME280;69433;48.642;9.142;2024-02-14T05:11:17;97409.06;;;23.14;32.69
80124;BME280;69433;48.642;9.142;2024-02-14T05:13:45;97404.50;;;23.11;32.98
80124;BME280;69433;48.642;9.142;2024-02-14T05:16:12;97403.41;;;23.05;32.99
80124;BME280;69433;48.642;9.142;2024-02-14T05:18:40;97400.34;;;23.03;33.00
80124;BME280;69433;48.642;9.142;2024-02-14T05:21:07;97392.31;;;22.99;33.13
80124;BME280;69433;48.642;9.142;2024-02-14T05:23:35;97395.44;;;22.94;33.16
80124;BME280;69433;48.642;9.142;2024-02-14T05:26:02;97388.56;;;22.89;33.37
80124;BME280;69433;48.642;9.142;2024-02-14T05:28:29;97395.53;;;22.83;33.46
80124;BME280;69433;48.642;9.142;2024-02-14T05:31:08;97397.50;;;22.76;33.56
80124;BME280;69433;48.642;9.142;2024-02-14T05:33:33;97395.59;;;22.69;33.54
80124;BME280;69433;48.642;9.142;2024-02-14T05:35:59;97397.94;;;22.64;33.72
80124;BME280;69433;48.642;9.142;2024-02-14T05:38:27;97390.28;;;22.62;33.81
80124;BME280;69433;48.642;9.142;2024-02-14T05:41:02;97395.63;;;22.62;33.81
80124;BME280;69433;48.642;9.142;2024-02-14T05:43:39;97390.28;;;22.62;33.87
80124;BME280;69433;48.642;9.142;2024-02-14T05:46:04;97387.97;;;22.64;33.79
80124;BME280;69433;48.642;9.142;2024-02-14T05:48:29;97383.75;;;22.67;33.94
80124;BME280;69433;48.642;9.142;2024-02-14T05:50:54;97386.41;;;22.70;33.70
80124;BME280;69433;48.642;9.142;2024-02-14T05:53:28;97378.72;;;22.72;33.85
80124;BME280;69433;48.642;9.142;2024-02-14T05:55:53;97380.66;;;22.75;33.84
80124;BME280;69433;48.642;9.142;2024-02-14T05:58:18;97388.25;;;22.80;33.72
80124;BME280;69433;48.642;9.142;2024-02-14T06:00:53;97386.34;;;22.81;33.64
80124;BME280;69433;48.642;9.142;2024-02-14T06:03:23;97383.28;;;22.82;33.81
80124;BME280;69433;48.642;9.142;2024-02-14T06:05:48;97383.28;;;22.82;33.66
80124;BME280;69433;48.642;9.142;2024-02-14T06:08:13;97384.06;;;22.79;33.73
80124;BME280;69433;48.642;9.142;2024-02-14T06:10:45;97388.69;;;22.75;33.74
80124;BME280;69433;48.642;9.142;2024-02-14T06:13:21;97378.75;;;22.69;33.99
80124;BME280;69433;48.642;9.142;2024-02-14T06:15:48;97386.81;;;22.65;33.90
80124;BME280;69433;48.642;9.142;2024-02-14T06:18:24;97385.69;;;22.59;34.11
80124;BME280;69433;48.642;9.142;2024-02-14T06:23:20;97400.34;;;22.47;34.10
80124;BME280;69433;48.642;9.142;2024-02-14T06:25:52;97404.94;;;22.40;34.46
80124;BME280;69433;48.642;9.142;2024-02-14T06:28:34;97403.84;;;22.37;34.53
80124;BME280;69433;48.642;9.142;2024-02-14T06:31:00;97401.19;;;22.30;34.41
80124;BME280;69433;48.642;9.142;2024-02-14T06:33:26;97405.03;;;22.26;34.56
80124;BME280;69433;48.642;9.142;2024-02-14T06:36:00;97415.41;;;22.16;34.79
80124;BME280;69433;48.642;9.142;2024-02-14T06:38:28;97411.63;;;22.10;34.82
80124;BME280;69433;48.642;9.142;2024-02-14T06:41:06;97426.56;;;22.04;34.93
80124;BME280;69433;48.642;9.142;2024-02-14T06:43:32;97424.28;;;21.99;35.05
80124;BME280;69433;48.642;9.142;2024-02-14T06:46:26;97422.75;;;21.95;35.28
80124;BME280;69433;48.642;9.142;2024-02-14T06:48:57;97432.72;;;21.91;35.32
80124;BME280;69433;48.642;9.142;2024-02-14T06:51:25;97425.44;;;21.91;35.24
80124;BME280;69433;48.642;9.142;2024-02-14T06:53:57;97432.69;;;21.94;35.05
80124;BME280;69433;48.642;9.142;2024-02-14T06:56:26;97429.25;;;21.94;35.02
80124;BME280;69433;48.642;9.142;2024-02-14T06:58:53;97426.59;;;21.90;35.29
80124;BME280;69433;48.642;9.142;2024-02-14T07:01:26;97415.88;;;21.90;35.22
80124;BME280;69433;48.642;9.142;2024-02-14T07:04:03;97419.72;;;21.89;35.20
80124;BME280;69433;48.642;9.142;2024-02-14T07:06:28;97415.88;;;21.87;35.17
80124;BME280;69433;48.642;9.142;2024-02-14T07:09:13;97418.19;;;21.84;35.24
80124;BME280;69433;48.642;9.142;2024-02-14T07:11:49;97425.84;;;21.82;35.34
80124;BME280;69433;48.642;9.142;2024-02-14T07:14:15;97417.81;;;21.79;35.59
80124;BME280;69433;48.642;9.142;2024-02-14T07:16:41;97426.63;;;21.76;35.31
80124;BME280;69433;48.642;9.142;2024-02-14T07:19:06;97423.22;;;21.72;35.44
80124;BME280;69433;48.642;9.142;2024-02-14T07:21:36;97427.03;;;21.71;35.59
80124;BME280;69433;48.642;9.142;2024-02-14T07:24:06;97425.50;;;21.70;35.60
80124;BME280;69433;48.642;9.142;2024-02-14T07:26:31;97439.25;;;21.68;35.66
80124;BME280;69433;48.642;9.142;2024-02-14T07:28:58;97441.56;;;21.66;35.78
80124;BME280;69433;48.642;9.142;2024-02-14T07:31:33;97440.00;;;21.76;35.65
80124;BME280;69433;48.642;9.142;2024-02-14T07:34:02;97427.38;;;21.76;35.66
80124;BME280;69433;48.642;9.142;2024-02-14T07:36:31;97439.25;;;21.75;35.57
80124;BME280;69433;48.642;9.142;2024-02-14T07:38:57;97438.84;;;21.73;36.33
80124;BME280;69433;48.642;9.142;2024-02-14T07:41:24;97429.69;;;21.74;35.90
80124;BME280;69433;48.642;9.142;2024-02-14T07:43:59;97425.84;;;21.75;36.02
80124;BME280;69433;48.642;9.142;2024-02-14T07:46:25;97439.63;;;21.74;35.93
80124;BME280;69433;48.642;9.142;2024-02-14T07:48:58;97433.50;;;21.73;35.97
80124;BME280;69433;48.642;9.142;2024-02-14T07:51:31;97439.63;;;21.74;35.99
80124;BME280;69433;48.642;9.142;2024-02-14T07:54:35;97438.09;;;21.80;35.78
80124;BME280;69433;48.642;9.142;2024-02-14T07:57:02;97439.97;;;21.83;35.84
80124;BME280;69433;48.642;9.142;2024-02-14T07:59:27;97441.88;;;21.86;35.70
80124;BME280;69433;48.642;9.142;2024-02-14T08:01:59;97452.97;;;21.84;36.02
80124;BME280;69433;48.642;9.142;2024-02-14T08:04:31;97456.41;;;21.85;35.70
80124;BME280;69433;48.642;9.142;2024-02-14T08:06:57;97457.19;;;21.89;35.59
80124;BME280;69433;48.642;9.142;2024-02-14T08:09:24;97457.53;;;21.95;35.40
80124;BME280;69433;48.642;9.142;2024-02-14T08:11:49;97457.94;;;22.00;35.58
80124;BME280;69433;48.642;9.142;2024-02-14T08:14:20;97465.19;;;22.07;35.50
80124;BME280;69433;48.642;9.142;2024-02-14T08:16:46;97459.81;;;22.14;35.23
80124;BME280;69433;48.642;9.142;2024-02-14T08:19:11;97470.09;;;22.23;35.17
80124;BME280;69433;48.642;9.142;2024-02-14T08:21:43;97466.22;;;22.31;35.09
80124;BME280;69433;48.642;9.142;2024-02-14T08:24:11;97470.06;;;22.37;35.06
80124;BME280;69433;48.642;9.142;2024-02-14T08:26:40;97471.53;;;22.45;34.96
80124;BME280;69433;48.642;9.142;2024-02-14T08:29:07;97469.97;;;22.51;34.87
80124;BME280;69433;48.642;9.142;2024-02-14T08:31:35;97478.00;;;22.58;34.78
80124;BME280;69433;48.642;9.142;2024-02-14T08:34:04;97480.25;;;22.63;34.55
80124;BME280;69433;48.642;9.142;2024-02-14T08:36:30;97481.34;;;22.69;34.50
80124;BME280;69433;48.642;9.142;2024-02-14T08:38:55;97482.50;;;22.75;34.58
80124;BME280;69433;48.642;9.142;2024-02-14T08:41:20;97495.09;;;22.82;34.41
80124;BME280;69433;48.642;9.142;2024-02-14T08:43:53;97491.25;;;22.86;34.38
80124;BME280;69433;48.642;9.142;2024-02-14T08:46:22;97484.69;;;22.91;34.13
80124;BME280;69433;48.642;9.142;2024-02-14T08:48:48;97490.06;;;22.94;34.21
80124;BME280;69433;48.642;9.142;2024-02-14T08:51:37;97489.63;;;23.00;34.06
80124;BME280;69433;48.642;9.142;2024-02-14T08:54:25;97489.59;;;23.03;34.06
80124;BME280;69433;48.642;9.142;2024-02-14T08:56:53;97486.53;;;23.05;34.12
80124;BME280;69433;48.642;9.142;2024-02-14T08:59:21;97487.66;;;23.07;34.15
80124;BME280;69433;48.642;9.142;2024-02-14T09:01:46;97479.97;;;23.09;33.87
80124;BME280;69433;48.642;9.142;2024-02-14T09:04:21;97484.94;;;23.14;33.84
80124;BME280;69433;48.642;9.142;2024-02-14T09:06:52;97481.09;;;23.15;33.78
80124;BME280;69433;48.642;9.142;2024-02-14T09:09:21;97480.28;;;23.18;33.76
80124;BME280;69433;48.642;9.142;2024-02-14T09:11:46;97494.06;;;23.20;33.89
80124;BME280;69433;48.642;9.142;2024-02-14T09:14:12;97482.97;;;23.22;33.93
80124;BME280;69433;48.642;9.142;2024-02-14T09:16:48;97494.06;;;23.24;33.73
80124;BME280;69433;48.642;9.142;2024-02-14T09:19:18;97488.31;;;23.25;33.89
80124;BME280;69433;48.642;9.142;2024-02-14T09:21:43;97490.94;;;23.29;33.77
80124;BME280;69433;48.642;9.142;2024-02-14T09:24:09;97499.38;;;23.31;33.58
80124;BME280;69433;48.642;9.142;2024-02-14T09:26:35;97497.06;;;23.33;33.72
80124;BME280;69433;48.642;9.142;2024-02-14T09:29:07;97487.84;;;23.34;33.66
80124;BME280;69433;48.642;9.142;2024-02-14T09:31:34;97497.06;;;23.33;33.46
80124;BME280;69433;48.642;9.142;2024-02-14T09:34:00;97493.22;;;23.34;33.58
80124;BME280;69433;48.642;9.142;2024-02-14T09:36:27;97481.72;;;23.34;33.54
80124;BME280;69433;48.642;9.142;2024-02-14T09:38:58;97490.53;;;23.34;33.50
80124;BME280;69433;48.642;9.142;2024-02-14T09:41:37;97487.47;;;23.32;33.67
80124;BME280;69433;48.642;9.142;2024-02-14T09:44:15;97490.56;;;23.30;33.66
80124;BME280;69433;48.642;9.142;2024-02-14T09:46:41;97496.69;;;23.31;33.44
80124;BME280;69433;48.642;9.142;2024-02-14T09:49:09;97490.94;;;23.29;33.75
80124;BME280;69433;48.642;9.142;2024-02-14T09:51:37;97477.91;;;23.27;33.69
80124;BME280;69433;48.642;9.142;2024-02-14T09:54:04;97477.16;;;23.27;33.45
80124;BME280;69433;48.642;9.142;2024-02-14T09:56:29;97478.72;;;23.24;33.83
80124;BME280;69433;48.642;9.142;2024-02-14T09:58:56;97471.44;;;23.25;33.45
80124;BME280;69433;48.642;9.142;2024-02-14T10:01:32;97474.09;;;23.28;33.69
80124;BME280;69433;48.642;9.142;2024-02-14T10:03:58;97476.34;;;23.34;33.62
80124;BME280;69433;48.642;9.142;2024-02-14T10:06:29;97477.13;;;23.30;33.67
80124;BME280;69433;48.642;9.142;2024-02-14T10:08:56;97477.91;;;23.27;33.53
80124;BME280;69433;48.642;9.142;2024-02-14T10:11:21;97477.16;;;23.27;33.69
80124;BME280;69433;48.642;9.142;2024-02-14T10:13:50;97475.25;;;23.27;33.73
80124;BME280;69433;48.642;9.142;2024-02-14T10:16:18;97481.75;;;23.26;33.68
80124;BME280;69433;48.642;9.142;2024-02-14T10:18:45;97464.13;;;23.29;33.37
80124;BME280;69433;48.642;9.142;2024-02-14T10:21:24;97472.16;;;23.29;33.85
80124;BME280;69433;48.642;9.142;2024-02-14T10:23:50;97471.78;;;23.30;33.68
80124;BME280;69433;48.642;9.142;2024-02-14T10:26:29;97468.63;;;23.43;33.40
80124;BME280;69433;48.642;9.142;2024-02-14T10:28:56;97467.41;;;23.47;33.56
80124;BME280;69433;48.642;9.142;2024-02-14T10:31:26;97461.66;;;23.52;33.14
80124;BME280;69433;48.642;9.142;2024-02-14T10:34:07;97463.91;;;23.57;33.26
80124;BME280;69433;48.642;9.142;2024-02-14T10:36:39;97462.28;;;23.67;33.32
80124;BME280;69433;48.642;9.142;2024-02-14T10:39:10;97461.03;;;23.75;33.09
80124;BME280;69433;48.642;9.142;2024-02-14T10:41:36;97462.13;;;23.81;33.31
80124;BME280;69433;48.642;9.142;2024-02-14T10:44:04;97458.63;;;23.84;32.84
80124;BME280;69433;48.642;9.142;2024-02-14T10:46:48;97454.41;;;23.87;32.76
80124;BME280;69433;48.642;9.142;2024-02-14T10:49:17;97451.69;;;23.90;32.76
80124;BME280;69433;48.642;9.142;2024-02-14T10:51:45;97445.91;;;23.92;33.17
80124;BME280;69433;48.642;9.142;2024-02-14T10:54:18;97441.63;;;23.98;32.69
80124;BME280;69433;48.642;9.142;2024-02-14T10:56:48;97446.53;;;24.03;32.72
80124;BME280;69433;48.642;9.142;2024-02-14T10:59:16;97448.50;;;23.99;32.82
80124;BME280;69433;48.642;9.142;2024-02-14T11:01:46;97449.97;;;24.03;32.77
80124;BME280;69433;48.642;9.142;2024-02-14T11:04:12;97458.00;;;24.07;32.62
80124;BME280;69433;48.642;9.142;2024-02-14T11:06:47;97448.78;;;24.08;32.87
80124;BME280;69433;48.642;9.142;2024-02-14T11:09:13;97452.63;;;24.07;32.73
80124;BME280;69433;48.642;9.142;2024-02-14T11:11:47;97469.16;;;24.05;33.11
80124;BME280;69433;48.642;9.142;2024-02-14T11:14:41;97470.31;;;24.04;32.76
80124;BME280;69433;48.642;9.142;2024-02-14T11:17:12;97469.22;;;24.02;32.83
80124;BME280;69433;48.642;9.142;2024-02-14T11:19:42;97470.38;;;24.01;33.15
80124;BME280;69433;48.642;9.142;2024-02-14T11:22:21;97477.97;;;24.06;33.09
80124;BME280;69433;48.642;9.142;2024-02-14T11:24:47;97474.50;;;24.09;32.87
80124;BME280;69433;48.642;9.142;2024-02-14T11:27:18;97474.91;;;24.04;33.11
80124;BME280;69433;48.642;9.142;2024-02-14T11:29:55;97480.78;;;23.95;32.87
80124;BME280;69433;48.642;9.142;2024-02-14T11:32:22;97495.03;;;23.89;33.00
80124;BME280;69433;48.642;9.142;2024-02-14T11:34:57;97494.38;;;23.78;33.38
80124;BME280;69433;48.642;9.142;2024-02-14T11:37:30;97481.81;;;23.67;33.64
80124;BME280;69433;48.642;9.142;2024-02-14T11:39:57;97476.91;;;23.62;33.41
80124;BME280;69433;48.642;9.142;2024-02-14T11:42:25;97484.22;;;23.58;33.73
80124;BME280;69433;48.642;9.142;2024-02-14T11:44:51;97478.91;;;23.51;33.75
80124;BME280;69433;48.642;9.142;2024-02-14T11:47:16;97481.22;;;23.49;33.62
80124;BME280;69433;48.642;9.142;2024-02-14T11:49:41;97482.41;;;23.45;33.91
80124;BME280;69433;48.642;9.142;2024-02-14T11:52:11;97474.78;;;23.36;34.07
80124;BME280;69433;48.642;9.142;2024-02-14T11:54:50;97478.28;;;23.33;34.11
80124;BME280;69433;48.642;9.142;2024-02-14T11:57:25;97473.69;;;23.34;34.08
80124;BME280;69433;48.642;9.142;2024-02-14T11:59:52;97470.63;;;23.31;33.98
80124;BME280;69433;48.642;9.142;2024-02-14T12:02:26;97476.53;;;23.60;33.81
80124;BME280;69433;48.642;9.142;2024-02-14T12:04:53;97468.69;;;23.77;33.50
80124;BME280;69433;48.642;9.142;2024-02-14T12:07:26;97466.56;;;25.17;31.21
80124;BME280;69433;48.642;9.142;2024-02-14T12:09:51;97461.97;;;25.64;30.57
80124;BME280;69433;48.642;9.142;2024-02-14T12:12:17;97474.97;;;26.48;29.28
80124;BME280;69433;48.642;9.142;2024-02-14T12:14:45;97467.97;;;25.71;30.13
80124;BME280;69433;48.642;9.142;2024-02-14T12:17:47;97468.63;;;26.18;29.15
80124;BME280;69433;48.642;9.142;2024-02-14T12:23:34;97468.69;;;24.75;31.71
80124;BME280;69433;48.642;9.142;2024-02-14T12:26:07;97463.97;;;24.25;32.47
80124;BME280;69433;48.642;9.142;2024-02-14T12:28:33;97466.97;;;23.93;32.88
80124;BME280;69433;48.642;9.142;2024-02-14T12:30:59;97476.38;;;23.75;33.41
80124;BME280;69433;48.642;9.142;2024-02-14T12:33:26;97478.06;;;23.61;33.37
80124;BME280;69433;48.642;9.142;2024-02-14T12:36:01;97469.41;;;23.36;33.96
80124;BME280;69433;48.642;9.142;2024-02-14T12:38:28;97469.84;;;23.31;34.06
80124;BME280;69433;48.642;9.142;2024-02-14T12:40:53;97455.75;;;23.20;34.49
80124;BME280;69433;48.642;9.142;2024-02-14T12:43:21;97457.50;;;23.41;34.23
80124;BME280;69433;48.642;9.142;2024-02-14T12:45:47;97450.69;;;23.33;33.87
80124;BME280;69433;48.642;9.142;2024-02-14T12:48:22;97454.69;;;23.58;33.96
80124;BME280;69433;48.642;9.142;2024-02-14T12:50:47;97452.06;;;23.51;33.86
80124;BME280;69433;48.642;9.142;2024-02-14T12:53:19;97446.41;;;23.39;34.26
80124;BME280;69433;48.642;9.142;2024-02-14T12:55:53;97451.06;;;23.31;34.32
80124;BME280;69433;48.642;9.142;2024-02-14T12:58:25;97454.94;;;23.26;34.54
80124;BME280;69433;48.642;9.142;2024-02-14T13:01:08;97458.75;;;23.29;34.65
80124;BME280;69433;48.642;9.142;2024-02-14T13:03:44;97445.72;;;23.31;34.33
80124;BME280;69433;48.642;9.142;2024-02-14T13:06:12;97450.69;;;23.33;34.29
80124;BME280;69433;48.642;9.142;2024-02-14T13:08:39;97442.28;;;23.27;34.23
80124;BME280;69433;48.642;9.142;2024-02-14T13:11:07;97444.63;;;23.25;34.65
80124;BME280;69433;48.642;9.142;2024-02-14T13:13:45;97452.66;;;23.25;34.75
80124;BME280;69433;48.642;9.142;2024-02-14T13:16:11;97446.16;;;23.26;34.85
80124;BME280;69433;48.642;9.142;2024-02-14T13:18:39;97448.41;;;23.27;34.67